sensor_id;sensor_type;location;lat;lon;timestamp;P1;durP1;ratioP1;P2;durP2;ratioP2
17852;SDS011;9052;53.494;14.376;2023-07-08T00:00:41;5.63;;;5.13;;
17852;SDS011;9052;53.494;14.376;2023-07-08T00:03:08;5.13;;;4.70;;
17852;SDS011;9052;53.494;14.376;2023-07-08T00:05:35;7.43;;;5.20;;
17852;SDS011;9052;53.494;14.376;2023-07-08T00:08:02;4.67;;;4.10;;
17852;SDS011;9052;53.494;14.376;2023-07-08T00:10:29;5.80;;;4.27;;
17852;SDS011;9052;53.494;14.376;2023-07-08T00:12:57;5.00;;;4.50;;
17852;SDS011;9052;53.494;14.376;2023-07-08T00:15:26;5.93;;;5.27;;
17852;SDS011;9052;53.494;14.376;2023-07-08T00:17:54;9.67;;;4.13;;
17852;SDS011;9052;53.494;14.376;2023-07-08T00:20:22;5.30;;;4.70;;
17852;SDS011;9052;53.494;14.376;2023-07-08T00:22:54;9.10;;;4.73;;
17852;SDS011;9052;53.494;14.376;2023-07-08T00:25:22;4.40;;;4.10;;
17852;SDS011;9052;53.494;14.376;2023-07-08T00:27:49;4.97;;;4.47;;
17852;SDS011;9052;53.494;14.376;2023-07-08T00:30:17;4.33;;;4.03;;
17852;SDS011;9052;53.494;14.376;2023-07-08T00:32:48;8.27;;;4.63;;
17852;SDS011;9052;53.494;14.376;2023-07-08T00:35:19;3.70;;;3.40;;
17852;SDS011;9052;53.494;14.376;2023-07-08T00:37:47;4.33;;;3.87;;
17852;SDS011;9052;53.494;14.376;2023-07-08T00:40:15;6.17;;;4.77;;
17852;SDS011;9052;53.494;14.376;2023-07-08T00:42:44;4.63;;;4.03;;
17852;SDS011;9052;53.494;14.376;2023-07-08T00:45:20;3.50;;;3.20;;
17852;SDS011;9052;53.494;14.376;2023-07-08T00:48:00;6.33;;;4.80;;
17852;SDS011;9052;53.494;14.376;2023-07-08T00:50:31;4.57;;;4.17;;
17852;SDS011;9052;53.494;14.376;2023-07-08T00:55:51;5.00;;;3.83;;
17852;SDS011;9052;53.494;14.376;2023-07-08T00:58:19;4.23;;;3.93;;
17852;SDS011;9052;53.494;14.376;2023-07-08T01:00:48;4.90;;;4.60;;
17852;SDS011;9052;53.494;14.376;2023-07-08T01:03:17;7.90;;;5.60;;
17852;SDS011;9052;53.494;14.376;2023-07-08T01:05:45;8.50;;;5.00;;
17852;SDS011;9052;53.494;14.376;2023-07-08T01:08:12;5.03;;;4.63;;
17852;SDS011;9052;53.494;14.376;2023-07-08T01:10:48;7.27;;;4.80;;
17852;SDS011;9052;53.494;14.376;2023-07-08T01:13:17;17.20;;;6.27;;
17852;SDS011;9052;53.494;14.376;2023-07-08T01:15:45;9.13;;;6.30;;
17852;SDS011;9052;53.494;14.376;2023-07-08T01:18:15;5.03;;;4.40;;
17852;SDS011;9052;53.494;14.376;2023-07-08T01:20:45;15.00;;;6.10;;
17852;SDS011;9052;53.494;14.376;2023-07-08T01:23:14;7.53;;;6.07;;
17852;SDS011;9052;53.494;14.376;2023-07-08T01:25:41;7.97;;;4.97;;
17852;SDS011;9052;53.494;14.376;2023-07-08T01:28:09;12.43;;;5.07;;
17852;SDS011;9052;53.494;14.376;2023-07-08T01:30:36;6.23;;;5.63;;
17852;SDS011;9052;53.494;14.376;2023-07-08T01:33:04;6.23;;;5.30;;
17852;SDS011;9052;53.494;14.376;2023-07-08T01:35:33;5.43;;;4.37;;
17852;SDS011;9052;53.494;14.376;2023-07-08T01:38:01;7.43;;;4.93;;
17852;SDS011;9052;53.494;14.376;2023-07-08T01:40:31;8.83;;;5.17;;
17852;SDS011;9052;53.494;14.376;2023-07-08T01:42:59;11.50;;;6.37;;
17852;SDS011;9052;53.494;14.376;2023-07-08T01:45:28;7.63;;;4.97;;
17852;SDS011;9052;53.494;14.376;2023-07-08T01:47:57;8.50;;;5.33;;
17852;SDS011;9052;53.494;14.376;2023-07-08T01:50:27;6.20;;;4.20;;
17852;SDS011;9052;53.494;14.376;2023-07-08T01:52:55;5.70;;;5.10;;
17852;SDS011;9052;53.494;14.376;2023-07-08T01:55:24;6.10;;;4.93;;
17852;SDS011;9052;53.494;14.376;2023-07-08T01:57:55;8.00;;;5.13;;
17852;SDS011;9052;53.494;14.376;2023-07-08T02:00:22;14.00;;;5.17;;
17852;SDS011;9052;53.494;14.376;2023-07-08T02:02:49;5.00;;;4.60;;
17852;SDS011;9052;53.494;14.376;2023-07-08T02:05:17;6.90;;;5.20;;
17852;SDS011;9052;53.494;14.376;2023-07-08T02:07:43;9.13;;;5.30;;
17852;SDS011;9052;53.494;14.376;2023-07-08T02:10:11;7.37;;;5.53;;
17852;SDS011;9052;53.494;14.376;2023-07-08T02:12:37;18.57;;;6.30;;
17852;SDS011;9052;53.494;14.376;2023-07-08T02:15:07;5.70;;;5.10;;
17852;SDS011;9052;53.494;14.376;2023-07-08T02:17:35;8.80;;;5.90;;
17852;SDS011;9052;53.494;14.376;2023-07-08T02:20:02;7.00;;;5.43;;
17852;SDS011;9052;53.494;14.376;2023-07-08T02:22:29;6.93;;;5.23;;
17852;SDS011;9052;53.494;14.376;2023-07-08T02:24:56;10.77;;;5.10;;
17852;SDS011;9052;53.494;14.376;2023-07-08T02:27:23;9.37;;;5.87;;
17852;SDS011;9052;53.494;14.376;2023-07-08T02:29:50;5.90;;;5.30;;
17852;SDS011;9052;53.494;14.376;2023-07-08T02:32:18;6.93;;;5.53;;
17852;SDS011;9052;53.494;14.376;2023-07-08T02:34:45;10.20;;;5.40;;
17852;SDS011;9052;53.494;14.376;2023-07-08T02:37:12;8.43;;;5.07;;
17852;SDS011;9052;53.494;14.376;2023-07-08T02:39:39;7.60;;;5.90;;
17852;SDS011;9052;53.494;14.376;2023-07-08T02:42:06;8.60;;;5.47;;
17852;SDS011;9052;53.494;14.376;2023-07-08T02:44:32;6.60;;;5.70;;
17852;SDS011;9052;53.494;14.376;2023-07-08T02:46:59;10.20;;;5.83;;
17852;SDS011;9052;53.494;14.376;2023-07-08T02:49:28;9.37;;;6.53;;
17852;SDS011;9052;53.494;14.376;2023-07-08T02:51:56;6.17;;;5.60;;
17852;SDS011;9052;53.494;14.376;2023-07-08T02:54:23;8.20;;;6.70;;
17852;SDS011;9052;53.494;14.376;2023-07-08T02:56:50;11.20;;;6.53;;
17852;SDS011;9052;53.494;14.376;2023-07-08T02:59:17;6.27;;;5.40;;
17852;SDS011;9052;53.494;14.376;2023-07-08T03:01:43;8.50;;;5.47;;
17852;SDS011;9052;53.494;14.376;2023-07-08T03:04:12;7.80;;;6.10;;
17852;SDS011;9052;53.494;14.376;2023-07-08T03:06:41;8.63;;;5.63;;
17852;SDS011;9052;53.494;14.376;2023-07-08T03:09:09;6.10;;;5.50;;
17852;SDS011;9052;53.494;14.376;2023-07-08T03:11:37;5.10;;;4.80;;
17852;SDS011;9052;53.494;14.376;2023-07-08T03:14:05;10.90;;;6.07;;
17852;SDS011;9052;53.494;14.376;2023-07-08T03:16:32;6.30;;;5.70;;
17852;SDS011;9052;53.494;14.376;2023-07-08T03:18:59;5.73;;;5.27;;
17852;SDS011;9052;53.494;14.376;2023-07-08T03:21:26;6.77;;;6.03;;
17852;SDS011;9052;53.494;14.376;2023-07-08T03:23:54;6.93;;;6.10;;
17852;SDS011;9052;53.494;14.376;2023-07-08T03:26:22;6.77;;;5.53;;
17852;SDS011;9052;53.494;14.376;2023-07-08T03:28:50;9.83;;;5.33;;
17852;SDS011;9052;53.494;14.376;2023-07-08T03:31:18;10.07;;;6.00;;
17852;SDS011;9052;53.494;14.376;2023-07-08T03:33:45;7.20;;;5.20;;
17852;SDS011;9052;53.494;14.376;2023-07-08T03:36:14;5.07;;;4.60;;
17852;SDS011;9052;53.494;14.376;2023-07-08T03:38:47;6.93;;;6.27;;
17852;SDS011;9052;53.494;14.376;2023-07-08T03:41:16;5.30;;;4.80;;
17852;SDS011;9052;53.494;14.376;2023-07-08T03:43:43;5.87;;;4.43;;
17852;SDS011;9052;53.494;14.376;2023-07-08T03:46:10;4.80;;;4.40;;
17852;SDS011;9052;53.494;14.376;2023-07-08T03:48:38;15.70;;;4.57;;
17852;SDS011;9052;53.494;14.376;2023-07-08T03:51:06;5.60;;;3.93;;
17852;SDS011;9052;53.494;14.376;2023-07-08T03:53:35;7.60;;;3.60;;
17852;SDS011;9052;53.494;14.376;2023-07-08T03:56:02;13.93;;;3.70;;
17852;SDS011;9052;53.494;14.376;2023-07-08T03:58:30;5.60;;;3.20;;
17852;SDS011;9052;53.494;14.376;2023-07-08T04:00:57;3.47;;;3.10;;
17852;SDS011;9052;53.494;14.376;2023-07-08T04:03:24;16.93;;;3.20;;
17852;SDS011;9052;53.494;14.376;2023-07-08T04:05:51;7.60;;;2.87;;
17852;SDS011;9052;53.494;14.376;2023-07-08T04:08:18;3.00;;;2.70;;
17852;SDS011;9052;53.494;14.376;2023-07-08T04:10:44;3.13;;;2.47;;
17852;SDS011;9052;53.494;14.376;2023-07-08T04:13:11;2.93;;;2.70;;
17852;SDS011;9052;53.494;14.376;2023-07-08T04:15:40;4.40;;;2.60;;
17852;SDS011;9052;53.494;14.376;2023-07-08T04:18:06;8.20;;;2.90;;
17852;SDS011;9052;53.494;14.376;2023-07-08T04:20:33;2.87;;;2.60;;
17852;SDS011;9052;53.494;14.376;2023-07-08T04:23:00;5.17;;;3.13;;
17852;SDS011;9052;53.494;14.376;2023-07-08T04:25:27;2.70;;;2.50;;
17852;SDS011;9052;53.494;14.376;2023-07-08T04:27:54;9.57;;;2.90;;
17852;SDS011;9052;53.494;14.376;2023-07-08T04:30:23;4.10;;;3.03;;
17852;SDS011;9052;53.494;14.376;2023-07-08T04:32:53;2.57;;;2.37;;
17852;SDS011;9052;53.494;14.376;2023-07-08T04:35:21;4.27;;;2.80;;
17852;SDS011;9052;53.494;14.376;2023-07-08T04:37:48;3.70;;;3.23;;
17852;SDS011;9052;53.494;14.376;2023-07-08T04:40:17;2.63;;;2.43;;
17852;SDS011;9052;53.494;14.376;2023-07-08T04:42:45;6.07;;;2.67;;
17852;SDS011;9052;53.494;14.376;2023-07-08T04:45:14;4.17;;;2.30;;
17852;SDS011;9052;53.494;14.376;2023-07-08T04:47:42;3.13;;;2.83;;
17852;SDS011;9052;53.494;14.376;2023-07-08T04:50:13;6.10;;;2.70;;
17852;SDS011;9052;53.494;14.376;2023-07-08T04:52:40;9.13;;;2.47;;
17852;SDS011;9052;53.494;14.376;2023-07-08T04:55:08;3.53;;;2.93;;
17852;SDS011;9052;53.494;14.376;2023-07-08T04:57:35;3.60;;;2.40;;
17852;SDS011;9052;53.494;14.376;2023-07-08T05:00:03;3.43;;;2.47;;
17852;SDS011;9052;53.494;14.376;2023-07-08T05:02:33;3.07;;;2.77;;
17852;SDS011;9052;53.494;14.376;2023-07-08T05:05:00;3.20;;;2.90;;
17852;SDS011;9052;53.494;14.376;2023-07-08T05:07:28;4.10;;;3.30;;
17852;SDS011;9052;53.494;14.376;2023-07-08T05:09:55;3.70;;;2.97;;
17852;SDS011;9052;53.494;14.376;2023-07-08T05:12:22;4.30;;;2.57;;
17852;SDS011;9052;53.494;14.376;2023-07-08T05:14:49;12.00;;;3.30;;
17852;SDS011;9052;53.494;14.376;2023-07-08T05:17:16;4.47;;;2.70;;
17852;SDS011;9052;53.494;14.376;2023-07-08T05:19:43;5.80;;;2.90;;
17852;SDS011;9052;53.494;14.376;2023-07-08T05:22:11;3.27;;;2.97;;
17852;SDS011;9052;53.494;14.376;2023-07-08T05:24:39;6.70;;;3.07;;
17852;SDS011;9052;53.494;14.376;2023-07-08T05:27:06;5.07;;;3.10;;
17852;SDS011;9052;53.494;14.376;2023-07-08T05:29:33;3.60;;;3.27;;
17852;SDS011;9052;53.494;14.376;2023-07-08T05:32:00;13.53;;;3.27;;
17852;SDS011;9052;53.494;14.376;2023-07-08T05:34:26;2.80;;;2.47;;
17852;SDS011;9052;53.494;14.376;2023-07-08T05:36:54;7.30;;;2.30;;
17852;SDS011;9052;53.494;14.376;2023-07-08T05:39:20;19.00;;;4.07;;
17852;SDS011;9052;53.494;14.376;2023-07-08T05:41:49;9.87;;;4.07;;
17852;SDS011;9052;53.494;14.376;2023-07-08T05:44:16;8.37;;;4.63;;
17852;SDS011;9052;53.494;14.376;2023-07-08T05:46:42;10.97;;;4.70;;
17852;SDS011;9052;53.494;14.376;2023-07-08T05:49:09;13.60;;;3.93;;
17852;SDS011;9052;53.494;14.376;2023-07-08T05:51:36;21.83;;;5.27;;
17852;SDS011;9052;53.494;14.376;2023-07-08T05:54:03;11.43;;;4.40;;
17852;SDS011;9052;53.494;14.376;2023-07-08T05:56:30;5.50;;;4.37;;
17852;SDS011;9052;53.494;14.376;2023-07-08T05:58:58;9.00;;;4.70;;
17852;SDS011;9052;53.494;14.376;2023-07-08T06:01:25;7.30;;;5.07;;
17852;SDS011;9052;53.494;14.376;2023-07-08T06:03:52;9.00;;;4.67;;
17852;SDS011;9052;53.494;14.376;2023-07-08T06:06:23;9.23;;;5.20;;
17852;SDS011;9052;53.494;14.376;2023-07-08T06:08:49;11.67;;;4.87;;
17852;SDS011;9052;53.494;14.376;2023-07-08T06:11:16;13.63;;;4.87;;
17852;SDS011;9052;53.494;14.376;2023-07-08T06:13:43;9.23;;;5.37;;
17852;SDS011;9052;53.494;14.376;2023-07-08T06:16:12;11.33;;;4.93;;
17852;SDS011;9052;53.494;14.376;2023-07-08T06:18:39;19.10;;;4.50;;
17852;SDS011;9052;53.494;14.376;2023-07-08T06:21:05;16.63;;;4.50;;
17852;SDS011;9052;53.494;14.376;2023-07-08T06:23:32;17.10;;;5.27;;
17852;SDS011;9052;53.494;14.376;2023-07-08T06:25:59;6.97;;;3.93;;
17852;SDS011;9052;53.494;14.376;2023-07-08T06:28:26;16.77;;;5.83;;
17852;SDS011;9052;53.494;14.376;2023-07-08T06:30:53;6.57;;;5.33;;
17852;SDS011;9052;53.494;14.376;2023-07-08T06:33:22;9.97;;;5.10;;
17852;SDS011;9052;53.494;14.376;2023-07-08T06:35:49;11.07;;;7.63;;
17852;SDS011;9052;53.494;14.376;2023-07-08T06:38:16;16.07;;;6.47;;
17852;SDS011;9052;53.494;14.376;2023-07-08T06:40:43;13.93;;;8.47;;
17852;SDS011;9052;53.494;14.376;2023-07-08T06:43:10;26.03;;;9.60;;
17852;SDS011;9052;53.494;14.376;2023-07-08T06:45:37;22.10;;;9.60;;
17852;SDS011;9052;53.494;14.376;2023-07-08T06:48:04;27.63;;;8.97;;
17852;SDS011;9052;53.494;14.376;2023-07-08T06:50:32;17.50;;;9.47;;
17852;SDS011;9052;53.494;14.376;2023-07-08T06:52:59;17.07;;;9.17;;
17852;SDS011;9052;53.494;14.376;2023-07-08T06:55:26;15.20;;;8.93;;
17852;SDS011;9052;53.494;14.376;2023-07-08T06:57:54;17.27;;;8.93;;
17852;SDS011;9052;53.494;14.376;2023-07-08T07:00:21;12.73;;;8.53;;
17852;SDS011;9052;53.494;14.376;2023-07-08T07:02:48;19.63;;;10.53;;
17852;SDS011;9052;53.494;14.376;2023-07-08T07:05:14;29.50;;;13.17;;
17852;SDS011;9052;53.494;14.376;2023-07-08T07:07:43;24.63;;;12.30;;
17852;SDS011;9052;53.494;14.376;2023-07-08T07:10:10;17.13;;;11.50;;
17852;SDS011;9052;53.494;14.376;2023-07-08T07:12:37;16.93;;;11.17;;
17852;SDS011;9052;53.494;14.376;2023-07-08T07:15:04;25.90;;;11.80;;
17852;SDS011;9052;53.494;14.376;2023-07-08T07:17:32;20.27;;;10.40;;
17852;SDS011;9052;53.494;14.376;2023-07-08T07:20:00;15.63;;;9.87;;
17852;SDS011;9052;53.494;14.376;2023-07-08T07:22:27;12.07;;;8.13;;
17852;SDS011;9052;53.494;14.376;2023-07-08T07:24:55;18.43;;;9.17;;
17852;SDS011;9052;53.494;14.376;2023-07-08T07:27:22;23.07;;;7.47;;
17852;SDS011;9052;53.494;14.376;2023-07-08T07:29:49;17.60;;;7.77;;
17852;SDS011;9052;53.494;14.376;2023-07-08T07:32:17;12.00;;;5.80;;
17852;SDS011;9052;53.494;14.376;2023-07-08T07:34:46;12.57;;;7.60;;
17852;SDS011;9052;53.494;14.376;2023-07-08T07:37:13;11.07;;;6.00;;
17852;SDS011;9052;53.494;14.376;2023-07-08T07:39:41;11.43;;;5.00;;
17852;SDS011;9052;53.494;14.376;2023-07-08T07:42:09;10.60;;;3.43;;
17852;SDS011;9052;53.494;14.376;2023-07-08T07:44:37;9.03;;;5.30;;
17852;SDS011;9052;53.494;14.376;2023-07-08T07:47:05;13.43;;;6.77;;
17852;SDS011;9052;53.494;14.376;2023-07-08T07:49:32;3.47;;;3.17;;
17852;SDS011;9052;53.494;14.376;2023-07-08T07:51:59;6.73;;;3.60;;
17852;SDS011;9052;53.494;14.376;2023-07-08T07:54:26;4.23;;;2.97;;
17852;SDS011;9052;53.494;14.376;2023-07-08T07:56:53;9.37;;;4.27;;
17852;SDS011;9052;53.494;14.376;2023-07-08T07:59:22;10.63;;;3.80;;
17852;SDS011;9052;53.494;14.376;2023-07-08T08:01:49;7.80;;;3.43;;
17852;SDS011;9052;53.494;14.376;2023-07-08T08:04:16;8.53;;;3.50;;
17852;SDS011;9052;53.494;14.376;2023-07-08T08:06:42;5.03;;;3.17;;
17852;SDS011;9052;53.494;14.376;2023-07-08T08:09:09;15.20;;;4.33;;
17852;SDS011;9052;53.494;14.376;2023-07-08T08:11:36;3.50;;;3.20;;
17852;SDS011;9052;53.494;14.376;2023-07-08T08:16:53;4.70;;;2.83;;
17852;SDS011;9052;53.494;14.376;2023-07-08T08:19:20;4.30;;;2.60;;
17852;SDS011;9052;53.494;14.376;2023-07-08T08:21:47;9.03;;;3.10;;
17852;SDS011;9052;53.494;14.376;2023-07-08T08:24:14;4.30;;;2.57;;
17852;SDS011;9052;53.494;14.376;2023-07-08T08:26:41;6.10;;;3.07;;
17852;SDS011;9052;53.494;14.376;2023-07-08T08:29:08;6.73;;;2.63;;
17852;SDS011;9052;53.494;14.376;2023-07-08T08:31:35;6.43;;;3.17;;
17852;SDS011;9052;53.494;14.376;2023-07-08T08:34:03;4.63;;;3.07;;
17852;SDS011;9052;53.494;14.376;2023-07-08T08:36:30;3.10;;;2.47;;
17852;SDS011;9052;53.494;14.376;2023-07-08T08:38:57;2.80;;;2.47;;
17852;SDS011;9052;53.494;14.376;2023-07-08T08:41:27;2.43;;;2.23;;
17852;SDS011;9052;53.494;14.376;2023-07-08T08:43:56;4.50;;;3.23;;
17852;SDS011;9052;53.494;14.376;2023-07-08T08:46:25;5.47;;;2.87;;
17852;SDS011;9052;53.494;14.376;2023-07-08T08:48:55;6.40;;;2.60;;
17852;SDS011;9052;53.494;14.376;2023-07-08T08:51:28;4.20;;;2.90;;
17852;SDS011;9052;53.494;14.376;2023-07-08T08:53:58;2.70;;;2.50;;
17852;SDS011;9052;53.494;14.376;2023-07-08T08:56:25;5.07;;;2.83;;
17852;SDS011;9052;53.494;14.376;2023-07-08T08:58:56;2.77;;;2.50;;
17852;SDS011;9052;53.494;14.376;2023-07-08T09:01:25;5.30;;;2.67;;
17852;SDS011;9052;53.494;14.376;2023-07-08T09:03:52;5.13;;;2.57;;
17852;SDS011;9052;53.494;14.376;2023-07-08T09:06:23;4.07;;;2.40;;
17852;SDS011;9052;53.494;14.376;2023-07-08T09:08:52;5.70;;;3.20;;
17852;SDS011;9052;53.494;14.376;2023-07-08T09:11:32;5.97;;;2.93;;
17852;SDS011;9052;53.494;14.376;2023-07-08T09:14:07;4.60;;;3.17;;
17852;SDS011;9052;53.494;14.376;2023-07-08T09:16:43;6.40;;;2.13;;
17852;SDS011;9052;53.494;14.376;2023-07-08T09:19:14;14.23;;;2.73;;
17852;SDS011;9052;53.494;14.376;2023-07-08T09:21:43;4.10;;;2.67;;
17852;SDS011;9052;53.494;14.376;2023-07-08T09:24:15;9.00;;;2.20;;
17852;SDS011;9052;53.494;14.376;2023-07-08T09:26:44;4.23;;;2.37;;
17852;SDS011;9052;53.494;14.376;2023-07-08T09:29:11;3.20;;;2.47;;
17852;SDS011;9052;53.494;14.376;2023-07-08T09:31:39;2.87;;;2.67;;
17852;SDS011;9052;53.494;14.376;2023-07-08T09:34:11;4.13;;;2.70;;
17852;SDS011;9052;53.494;14.376;2023-07-08T09:36:41;4.13;;;2.30;;
17852;SDS011;9052;53.494;14.376;2023-07-08T09:39:09;6.23;;;2.70;;
17852;SDS011;9052;53.494;14.376;2023-07-08T09:41:39;2.73;;;2.53;;
17852;SDS011;9052;53.494;14.376;2023-07-08T09:44:13;2.30;;;2.20;;
17852;SDS011;9052;53.494;14.376;2023-07-08T09:46:48;5.37;;;2.77;;
17852;SDS011;9052;53.494;14.376;2023-07-08T09:49:17;2.80;;;2.60;;
17852;SDS011;9052;53.494;14.376;2023-07-08T09:51:49;3.67;;;2.70;;
17852;SDS011;9052;53.494;14.376;2023-07-08T09:54:17;2.30;;;2.10;;
17852;SDS011;9052;53.494;14.376;2023-07-08T09:56:52;3.77;;;2.70;;
17852;SDS011;9052;53.494;14.376;2023-07-08T09:59:23;3.27;;;2.33;;
17852;SDS011;9052;53.494;14.376;2023-07-08T10:01:58;5.43;;;2.70;;
17852;SDS011;9052;53.494;14.376;2023-07-08T10:04:26;4.50;;;2.37;;
17852;SDS011;9052;53.494;14.376;2023-07-08T10:06:54;2.73;;;2.53;;
17852;SDS011;9052;53.494;14.376;2023-07-08T10:09:23;7.63;;;2.60;;
17852;SDS011;9052;53.494;14.376;2023-07-08T10:11:53;6.13;;;2.83;;
17852;SDS011;9052;53.494;14.376;2023-07-08T10:14:24;3.20;;;2.53;;
17852;SDS011;9052;53.494;14.376;2023-07-08T10:16:54;3.83;;;2.13;;
17852;SDS011;9052;53.494;14.376;2023-07-08T10:19:21;2.53;;;2.33;;
17852;SDS011;9052;53.494;14.376;2023-07-08T10:21:53;4.30;;;2.57;;
17852;SDS011;9052;53.494;14.376;2023-07-08T10:24:29;2.40;;;2.03;;
17852;SDS011;9052;53.494;14.376;2023-07-08T10:27:05;2.60;;;2.20;;
17852;SDS011;9052;53.494;14.376;2023-07-08T10:29:38;5.50;;;2.20;;
17852;SDS011;9052;53.494;14.376;2023-07-08T10:32:10;3.47;;;2.27;;
17852;SDS011;9052;53.494;14.376;2023-07-08T10:34:41;5.87;;;2.83;;
17852;SDS011;9052;53.494;14.376;2023-07-08T10:37:17;3.87;;;2.40;;
17852;SDS011;9052;53.494;14.376;2023-07-08T10:40:00;2.90;;;2.60;;
17852;SDS011;9052;53.494;14.376;2023-07-08T10:42:46;2.27;;;2.07;;
17852;SDS011;9052;53.494;14.376;2023-07-08T10:45:20;3.00;;;2.40;;
17852;SDS011;9052;53.494;14.376;2023-07-08T10:47:55;4.23;;;2.07;;
17852;SDS011;9052;53.494;14.376;2023-07-08T10:50:36;6.80;;;2.43;;
17852;SDS011;9052;53.494;14.376;2023-07-08T10:53:12;2.20;;;2.10;;
17852;SDS011;9052;53.494;14.376;2023-07-08T10:55:50;6.77;;;2.40;;
17852;SDS011;9052;53.494;14.376;2023-07-08T10:58:38;4.50;;;2.07;;
17852;SDS011;9052;53.494;14.376;2023-07-08T11:01:22;3.77;;;2.20;;
17852;SDS011;9052;53.494;14.376;2023-07-08T11:04:06;3.00;;;2.10;;
17852;SDS011;9052;53.494;14.376;2023-07-08T11:06:40;3.20;;;2.90;;
17852;SDS011;9052;53.494;14.376;2023-07-08T11:09:13;3.23;;;2.50;;
17852;SDS011;9052;53.494;14.376;2023-07-08T11:11:45;1.97;;;1.87;;
17852;SDS011;9052;53.494;14.376;2023-07-08T11:14:17;4.30;;;2.40;;
17852;SDS011;9052;53.494;14.376;2023-07-08T11:16:47;2.40;;;2.20;;
17852;SDS011;9052;53.494;14.376;2023-07-08T11:19:18;2.70;;;2.03;;
17852;SDS011;9052;53.494;14.376;2023-07-08T11:21:49;2.33;;;2.13;;
17852;SDS011;9052;53.494;14.376;2023-07-08T11:24:20;2.80;;;1.90;;
17852;SDS011;9052;53.494;14.376;2023-07-08T11:26:50;4.30;;;2.07;;
17852;SDS011;9052;53.494;14.376;2023-07-08T11:29:32;2.63;;;2.43;;
17852;SDS011;9052;53.494;14.376;2023-07-08T11:32:03;3.73;;;2.57;;
17852;SDS011;9052;53.494;14.376;2023-07-08T11:34:31;2.30;;;2.17;;
17852;SDS011;9052;53.494;14.376;2023-07-08T11:36:58;2.70;;;2.30;;
17852;SDS011;9052;53.494;14.376;2023-07-08T11:39:26;5.37;;;2.47;;
17852;SDS011;9052;53.494;14.376;2023-07-08T11:42:03;4.70;;;2.67;;
17852;SDS011;9052;53.494;14.376;2023-07-08T11:44:34;4.83;;;3.00;;
17852;SDS011;9052;53.494;14.376;2023-07-08T11:47:01;18.33;;;3.27;;
17852;SDS011;9052;53.494;14.376;2023-07-08T11:49:28;3.70;;;2.37;;
17852;SDS011;9052;53.494;14.376;2023-07-08T11:51:55;7.13;;;2.90;;
17852;SDS011;9052;53.494;14.376;2023-07-08T11:54:27;5.13;;;3.10;;
17852;SDS011;9052;53.494;14.376;2023-07-08T11:56:57;4.03;;;2.57;;
17852;SDS011;9052;53.494;14.376;2023-07-08T11:59:28;3.23;;;2.00;;
17852;SDS011;9052;53.494;14.376;2023-07-08T12:02:02;3.40;;;2.20;;
17852;SDS011;9052;53.494;14.376;2023-07-08T12:04:32;3.40;;;2.60;;
17852;SDS011;9052;53.494;14.376;2023-07-08T12:07:06;4.90;;;2.43;;
17852;SDS011;9052;53.494;14.376;2023-07-08T12:09:38;3.03;;;2.73;;
17852;SDS011;9052;53.494;14.376;2023-07-08T12:12:14;5.90;;;2.27;;
17852;SDS011;9052;53.494;14.376;2023-07-08T12:14:43;3.03;;;2.00;;
17852;SDS011;9052;53.494;14.376;2023-07-08T12:17:13;3.33;;;2.40;;
17852;SDS011;9052;53.494;14.376;2023-07-08T12:19:41;2.33;;;1.97;;
17852;SDS011;9052;53.494;14.376;2023-07-08T12:22:10;2.80;;;2.17;;
17852;SDS011;9052;53.494;14.376;2023-07-08T12:24:38;7.03;;;2.50;;
17852;SDS011;9052;53.494;14.376;2023-07-08T12:27:06;2.80;;;2.53;;
17852;SDS011;9052;53.494;14.376;2023-07-08T12:29:34;3.20;;;2.53;;
17852;SDS011;9052;53.494;14.376;2023-07-08T12:32:02;4.20;;;2.90;;
17852;SDS011;9052;53.494;14.376;2023-07-08T12:34:31;3.83;;;2.30;;
17852;SDS011;9052;53.494;14.376;2023-07-08T12:36:58;4.70;;;2.47;;
17852;SDS011;9052;53.494;14.376;2023-07-08T12:39:25;4.40;;;2.40;;
17852;SDS011;9052;53.494;14.376;2023-07-08T12:41:52;20.20;;;2.60;;
17852;SDS011;9052;53.494;14.376;2023-07-08T12:44:20;1.90;;;1.80;;
17852;SDS011;9052;53.494;14.376;2023-07-08T12:46:48;4.53;;;2.53;;
17852;SDS011;9052;53.494;14.376;2023-07-08T12:49:17;2.63;;;2.43;;
17852;SDS011;9052;53.494;14.376;2023-07-08T12:51:47;13.03;;;2.57;;
17852;SDS011;9052;53.494;14.376;2023-07-08T12:54:15;2.37;;;2.17;;
17852;SDS011;9052;53.494;14.376;2023-07-08T12:56:44;3.83;;;2.97;;
17852;SDS011;9052;53.494;14.376;2023-07-08T12:59:13;24.17;;;3.20;;
17852;SDS011;9052;53.494;14.376;2023-07-08T13:01:44;4.30;;;2.60;;
17852;SDS011;9052;53.494;14.376;2023-07-08T13:04:15;2.33;;;1.90;;
17852;SDS011;9052;53.494;14.376;2023-07-08T13:06:42;4.83;;;2.50;;
17852;SDS011;9052;53.494;14.376;2023-07-08T13:09:18;3.10;;;2.80;;
17852;SDS011;9052;53.494;14.376;2023-07-08T13:11:51;3.00;;;2.80;;
17852;SDS011;9052;53.494;14.376;2023-07-08T13:14:18;5.03;;;2.53;;
17852;SDS011;9052;53.494;14.376;2023-07-08T13:16:47;13.87;;;2.70;;
17852;SDS011;9052;53.494;14.376;2023-07-08T13:19:14;3.27;;;2.70;;
17852;SDS011;9052;53.494;14.376;2023-07-08T13:21:42;11.47;;;2.23;;
17852;SDS011;9052;53.494;14.376;2023-07-08T13:24:09;4.50;;;2.00;;
17852;SDS011;9052;53.494;14.376;2023-07-08T13:26:39;7.13;;;2.90;;
17852;SDS011;9052;53.494;14.376;2023-07-08T13:29:11;9.73;;;3.30;;
17852;SDS011;9052;53.494;14.376;2023-07-08T13:31:40;3.33;;;2.87;;
17852;SDS011;9052;53.494;14.376;2023-07-08T13:34:09;9.43;;;3.70;;
17852;SDS011;9052;53.494;14.376;2023-07-08T13:36:40;2.57;;;2.17;;
17852;SDS011;9052;53.494;14.376;2023-07-08T13:39:15;3.83;;;2.00;;
17852;SDS011;9052;53.494;14.376;2023-07-08T13:41:45;3.00;;;2.40;;
17852;SDS011;9052;53.494;14.376;2023-07-08T13:44:12;5.47;;;2.60;;
17852;SDS011;9052;53.494;14.376;2023-07-08T13:46:40;3.10;;;1.97;;
17852;SDS011;9052;53.494;14.376;2023-07-08T13:49:12;3.13;;;2.60;;
17852;SDS011;9052;53.494;14.376;2023-07-08T13:51:41;2.90;;;2.40;;
17852;SDS011;9052;53.494;14.376;2023-07-08T13:54:15;7.10;;;2.40;;
17852;SDS011;9052;53.494;14.376;2023-07-08T13:56:47;6.43;;;2.23;;
17852;SDS011;9052;53.494;14.376;2023-07-08T13:59:16;2.20;;;2.00;;
17852;SDS011;9052;53.494;14.376;2023-07-08T14:01:47;7.40;;;2.20;;
17852;SDS011;9052;53.494;14.376;2023-07-08T14:04:18;3.00;;;1.83;;
17852;SDS011;9052;53.494;14.376;2023-07-08T14:06:46;5.67;;;2.07;;
17852;SDS011;9052;53.494;14.376;2023-07-08T14:09:14;6.00;;;2.47;;
17852;SDS011;9052;53.494;14.376;2023-07-08T14:11:42;2.93;;;2.40;;
17852;SDS011;9052;53.494;14.376;2023-07-08T14:14:10;2.10;;;1.93;;
17852;SDS011;9052;53.494;14.376;2023-07-08T14:16:39;5.13;;;2.67;;
17852;SDS011;9052;53.494;14.376;2023-07-08T14:19:11;3.17;;;2.70;;
17852;SDS011;9052;53.494;14.376;2023-07-08T14:21:39;6.03;;;2.43;;
17852;SDS011;9052;53.494;14.376;2023-07-08T14:24:10;8.73;;;2.20;;
17852;SDS011;9052;53.494;14.376;2023-07-08T14:26:39;4.00;;;2.30;;
17852;SDS011;9052;53.494;14.376;2023-07-08T14:32:19;2.77;;;2.57;;
17852;SDS011;9052;53.494;14.376;2023-07-08T14:34:48;7.33;;;1.83;;
17852;SDS011;9052;53.494;14.376;2023-07-08T14:37:18;8.20;;;2.77;;
17852;SDS011;9052;53.494;14.376;2023-07-08T14:39:45;2.50;;;2.07;;
17852;SDS011;9052;53.494;14.376;2023-07-08T14:42:13;2.23;;;2.03;;
17852;SDS011;9052;53.494;14.376;2023-07-08T14:44:42;1.70;;;1.60;;
17852;SDS011;9052;53.494;14.376;2023-07-08T14:47:12;7.77;;;2.07;;
17852;SDS011;9052;53.494;14.376;2023-07-08T14:49:39;3.63;;;2.47;;
17852;SDS011;9052;53.494;14.376;2023-07-08T14:52:07;4.00;;;2.10;;
17852;SDS011;9052;53.494;14.376;2023-07-08T14:54:34;3.20;;;2.20;;
17852;SDS011;9052;53.494;14.376;2023-07-08T14:57:01;7.50;;;2.17;;
17852;SDS011;9052;53.494;14.376;2023-07-08T14:59:31;4.47;;;2.00;;
17852;SDS011;9052;53.494;14.376;2023-07-08T15:02:02;3.80;;;2.00;;
17852;SDS011;9052;53.494;14.376;2023-07-08T15:04:39;1.63;;;1.40;;